Japan Airlines Virtual Airport Information Service

Manila Ninoy Aquino International Airport

ICAO: RPLL Country: Philippines
Latitude: 14.5086 Longitude: 121.02
Latest Arrival : CAL701 (RCTP-RPLL) Latest Departure : JALJUMP (RPLL-ROAH)


WX CaptureLIVE
Data provided by noaa.gov | Fetched at 14:58:42

METAR : RPLL 231400Z 23005KT 9999 FEW025 28/24 Q1008 NOSIG RMK A2977

TAF : RPLL 231100Z 2312/2418 26008KT 9999 FEW025 TX33/2405Z TN28/2321Z TEMPO 2312/2318 28009KT FEW023 SCT100 TEMPO 2318/2324 01007KT FEW023 SCT300


Runway Data for RPLL
Data provided by openaviationdata.com

Runway ID Mag Var Hdg Length Elevation Surface ILS Freq ILS Id ILS Slope
6 -1 61° 11196 ft 22 ft Concrete 109.1 IML 3
13 -1 135° 6568 ft 22 ft Concrete -- -- --
24 -1 241° 11196 ft 22 ft Concrete 109.9 IMA 3
31 -1 315° 6568 ft 22 ft Concrete -- -- --

Manila Ninoy Aquino International Airport, Philippines
Use only for reference purposes



Not for navigational purposes.